createdAt,value
2019-04-28T00:00:33.152Z,0.00
2019-04-28T00:01:33.185Z,0.00
2019-04-28T00:02:33.217Z,0.00
2019-04-28T00:03:33.250Z,0.00
2019-04-28T00:04:33.286Z,0.00
2019-04-28T00:05:33.345Z,0.00
2019-04-28T00:06:33.374Z,0.00
2019-04-28T00:07:33.388Z,0.00
2019-04-28T00:08:33.419Z,0.00
2019-04-28T00:09:33.449Z,0.00
2019-04-28T00:10:33.483Z,0.00
2019-04-28T00:11:33.516Z,0.00
2019-04-28T00:12:33.548Z,0.00
2019-04-28T00:13:33.582Z,0.00
2019-04-28T00:14:33.614Z,0.00
2019-04-28T00:15:33.648Z,0.00
2019-04-28T00:16:33.685Z,0.00
2019-04-28T00:17:33.716Z,0.00
2019-04-28T00:18:33.750Z,0.00
2019-04-28T00:19:33.790Z,0.00
2019-04-28T00:20:33.813Z,0.00
2019-04-28T00:21:33.845Z,0.00
2019-04-28T00:22:33.880Z,0.00
2019-04-28T00:23:33.919Z,0.00
2019-04-28T00:24:33.944Z,0.00
2019-04-28T00:25:33.979Z,0.00
2019-04-28T00:26:34.013Z,0.00
2019-04-28T00:27:34.050Z,0.00
2019-04-28T00:28:34.076Z,0.00
2019-04-28T00:29:40.382Z,0.00
2019-04-28T00:30:34.141Z,0.00
2019-04-28T00:31:34.175Z,0.00
2019-04-28T00:32:34.239Z,0.00
2019-04-28T00:33:34.244Z,0.00
2019-04-28T00:34:34.274Z,0.00
2019-04-28T00:35:35.326Z,0.00
2019-04-28T00:36:34.341Z,0.00
2019-04-28T00:37:34.375Z,0.00
2019-04-28T00:38:34.404Z,0.00
2019-04-28T00:39:34.438Z,0.00
2019-04-28T00:40:34.471Z,0.00
2019-04-28T00:41:34.502Z,0.00
2019-04-28T00:42:34.536Z,0.00
2019-04-28T00:43:34.577Z,0.00
2019-04-28T00:44:34.606Z,0.00
2019-04-28T00:45:34.635Z,0.00
2019-04-28T00:46:34.665Z,0.00
2019-04-28T00:47:34.705Z,0.00
2019-04-28T00:48:34.734Z,0.00
2019-04-28T00:49:34.765Z,0.00
2019-04-28T00:50:34.798Z,0.00
2019-04-28T00:51:34.832Z,0.00
2019-04-28T00:52:34.865Z,0.00
2019-04-28T00:53:34.896Z,0.00
2019-04-28T00:54:34.933Z,0.00
2019-04-28T00:55:34.959Z,0.00
2019-04-28T00:56:34.997Z,0.00
2019-04-28T00:57:35.028Z,0.00
2019-04-28T00:58:35.059Z,0.00
2019-04-28T00:59:35.091Z,0.00
2019-04-28T01:00:35.124Z,0.00
2019-04-28T01:01:35.160Z,0.00
2019-04-28T01:02:35.190Z,0.00
2019-04-28T01:03:35.253Z,0.00
2019-04-28T01:04:35.258Z,0.00
2019-04-28T01:05:35.289Z,0.00
2019-04-28T01:06:35.322Z,0.00
2019-04-28T01:07:35.352Z,0.00
2019-04-28T01:08:35.388Z,0.00
2019-04-28T01:09:35.417Z,0.00
2019-04-28T01:10:35.448Z,0.00
2019-04-28T01:11:35.480Z,0.00
2019-04-28T01:12:35.518Z,0.00
2019-04-28T01:13:35.550Z,0.00
2019-04-28T01:14:35.586Z,0.00
2019-04-28T01:15:35.613Z,0.00
2019-04-28T01:16:35.648Z,0.00
2019-04-28T01:17:35.678Z,0.00
2019-04-28T01:18:35.708Z,0.00
2019-04-28T01:19:35.741Z,0.00
2019-04-28T01:20:35.781Z,0.00
2019-04-28T01:21:35.809Z,0.00
2019-04-28T01:22:35.841Z,0.00
2019-04-28T01:23:35.870Z,0.00
2019-04-28T01:24:35.903Z,0.00
2019-04-28T01:25:35.935Z,0.00
2019-04-28T01:26:35.968Z,0.00
2019-04-28T01:27:36.009Z,0.00
2019-04-28T01:28:36.038Z,0.00
2019-04-28T01:29:36.065Z,0.00
2019-04-28T01:30:36.095Z,0.00
2019-04-28T01:31:36.146Z,0.00
2019-04-28T01:32:36.165Z,0.00
2019-04-28T01:33:36.195Z,0.00
2019-04-28T01:34:36.229Z,0.00
2019-04-28T01:35:36.260Z,0.00
2019-04-28T01:36:36.295Z,0.00
2019-04-28T01:37:36.323Z,0.00
2019-04-28T01:38:36.355Z,0.00
2019-04-28T01:39:36.387Z,0.00
2019-04-28T01:40:36.418Z,0.00
2019-04-28T01:41:36.451Z,0.00
2019-04-28T01:42:36.483Z,0.00
2019-04-28T01:43:36.515Z,0.00
2019-04-28T01:44:36.548Z,0.00
2019-04-28T01:45:36.582Z,0.00
2019-04-28T01:46:36.610Z,0.00
2019-04-28T01:47:36.643Z,0.00
2019-04-28T01:48:36.674Z,0.00
2019-04-28T01:49:36.709Z,0.00
2019-04-28T01:50:36.744Z,0.00
2019-04-28T01:51:36.772Z,0.00
2019-04-28T01:52:36.802Z,0.00
2019-04-28T01:53:36.834Z,0.00
2019-04-28T01:54:36.865Z,0.00
2019-04-28T01:55:36.898Z,0.00
2019-04-28T01:56:36.930Z,0.00
2019-04-28T01:57:36.962Z,0.00
2019-04-28T01:58:36.997Z,0.00
2019-04-28T01:59:37.025Z,0.00
2019-04-28T02:00:37.056Z,0.00
2019-04-28T02:01:37.094Z,0.00
2019-04-28T02:02:37.123Z,0.00
2019-04-28T02:03:37.152Z,0.00
2019-04-28T02:04:37.187Z,0.00
2019-04-28T02:05:37.230Z,0.00
2019-04-28T02:06:37.249Z,0.00
2019-04-28T02:07:37.279Z,0.00
2019-04-28T02:08:37.313Z,0.00
2019-04-28T02:09:37.343Z,0.00
2019-04-28T02:10:37.375Z,0.00
2019-04-28T02:11:39.139Z,0.00
2019-04-28T02:12:37.438Z,0.00
2019-04-28T02:13:37.471Z,0.00
2019-04-28T02:14:37.503Z,0.00
2019-04-28T02:15:37.534Z,0.00
2019-04-28T02:16:37.565Z,0.00
2019-04-28T02:17:37.601Z,0.00
2019-04-28T02:18:37.628Z,0.00
2019-04-28T02:19:37.664Z,0.00
2019-04-28T02:20:39.310Z,0.00
2019-04-28T02:21:39.463Z,0.00
2019-04-28T02:22:37.757Z,0.00
2019-04-28T02:23:39.589Z,0.00
2019-04-28T02:24:37.819Z,0.00
2019-04-28T02:25:39.795Z,0.00
2019-04-28T02:26:37.885Z,0.00
2019-04-28T02:27:39.926Z,0.00
2019-04-28T02:28:37.946Z,0.00
2019-04-28T02:29:41.434Z,0.00
2019-04-28T02:30:47.684Z,0.00
2019-04-28T02:31:38.039Z,0.00
2019-04-28T02:32:40.744Z,0.00
2019-04-28T02:33:40.623Z,0.00
2019-04-28T02:34:40.692Z,0.00
2019-04-28T02:35:38.243Z,0.00
2019-04-28T02:36:40.540Z,5.63
2019-04-28T02:37:40.572Z,5.63
2019-04-28T02:38:41.030Z,5.63
2019-04-28T02:39:40.645Z,5.63
2019-04-28T02:40:40.618Z,5.63
2019-04-28T02:41:40.962Z,5.63
2019-04-28T02:42:40.985Z,5.63
2019-04-28T02:43:40.831Z,5.63
2019-04-28T02:44:40.448Z,11.25
2019-04-28T02:45:40.959Z,11.25
2019-04-28T02:46:40.815Z,11.25
2019-04-28T02:47:41.612Z,11.25
2019-04-28T02:48:40.442Z,11.25
2019-04-28T02:49:40.543Z,11.25
2019-04-28T02:50:40.949Z,16.88
2019-04-28T02:51:40.711Z,16.88
2019-04-28T02:52:41.217Z,16.88
2019-04-28T02:53:40.900Z,16.88
2019-04-28T02:54:40.441Z,22.50
2019-04-28T02:55:41.071Z,22.50
2019-04-28T02:56:40.896Z,22.50
2019-04-28T02:57:40.651Z,22.50
2019-04-28T02:58:41.527Z,28.13
2019-04-28T02:59:40.926Z,28.13
2019-04-28T03:00:41.156Z,28.13
2019-04-28T03:01:40.868Z,33.75
2019-04-28T03:02:41.380Z,33.75
2019-04-28T03:03:40.855Z,33.75
2019-04-28T03:04:40.900Z,33.75
2019-04-28T03:05:41.251Z,39.38
2019-04-28T03:06:40.706Z,39.38
2019-04-28T03:07:40.937Z,45.00
2019-04-28T03:08:40.516Z,45.00
2019-04-28T03:09:40.349Z,45.00
2019-04-28T03:10:41.014Z,50.63
2019-04-28T03:11:42.746Z,50.63
2019-04-28T03:12:41.425Z,56.25
2019-04-28T03:13:41.220Z,56.25
2019-04-28T03:14:43.338Z,56.25
2019-04-28T03:15:41.445Z,56.25
2019-04-28T03:16:41.011Z,56.25
2019-04-28T03:17:40.732Z,61.88
2019-04-28T03:18:41.250Z,61.88
2019-04-28T03:19:41.636Z,61.88
2019-04-28T03:20:41.823Z,67.50
2019-04-28T03:21:41.621Z,73.13
2019-04-28T03:22:40.780Z,73.13
2019-04-28T03:23:40.529Z,73.13
2019-04-28T03:24:41.325Z,78.75
2019-04-28T03:25:40.712Z,84.38
2019-04-28T03:26:41.507Z,84.38
2019-04-28T03:27:40.514Z,90.00
2019-04-28T03:28:41.388Z,90.00
2019-04-28T03:29:40.520Z,90.00
2019-04-28T03:30:43.856Z,95.63
2019-04-28T03:32:04.146Z,95.63
2019-04-28T03:32:52.070Z,95.63
2019-04-28T03:33:47.147Z,101.25
2019-04-28T03:34:43.679Z,101.25
2019-04-28T03:35:43.926Z,106.88
2019-04-28T03:36:40.892Z,106.88
2019-04-28T03:37:41.334Z,112.50
2019-04-28T03:38:40.689Z,112.50
2019-04-28T03:39:40.593Z,118.13
2019-04-28T03:40:41.440Z,123.75
2019-04-28T03:41:40.629Z,129.38
2019-04-28T03:42:41.097Z,129.38
2019-04-28T03:43:40.736Z,135.00
2019-04-28T03:44:41.460Z,129.38
2019-04-28T03:45:41.125Z,129.38
2019-04-28T03:46:41.348Z,129.38
2019-04-28T03:47:40.942Z,129.38
2019-04-28T03:48:41.079Z,135.00
2019-04-28T03:49:43.207Z,140.63
2019-04-28T03:50:41.454Z,146.25
2019-04-28T03:51:40.834Z,151.88
2019-04-28T03:52:41.476Z,157.50
2019-04-28T03:53:41.155Z,157.50
2019-04-28T03:54:41.226Z,157.50
2019-04-28T03:55:41.567Z,157.50
2019-04-28T03:56:41.354Z,157.50
2019-04-28T03:57:41.375Z,163.13
2019-04-28T03:58:40.890Z,163.13
2019-04-28T03:59:43.557Z,185.63
2019-04-28T04:00:41.106Z,191.25
2019-04-28T04:01:55.957Z,213.75
2019-04-28T04:02:41.344Z,208.13
2019-04-28T04:03:41.719Z,208.13
2019-04-28T04:04:41.601Z,219.38
2019-04-28T04:05:41.046Z,225.00
2019-04-28T04:06:41.072Z,196.88
2019-04-28T04:07:43.195Z,202.50
2019-04-28T04:08:41.138Z,230.63
2019-04-28T04:09:41.336Z,247.50
2019-04-28T04:10:41.201Z,208.13
2019-04-28T04:11:41.255Z,213.75
2019-04-28T04:12:41.467Z,219.38
2019-04-28T04:13:41.774Z,236.25
2019-04-28T04:14:41.407Z,230.63
2019-04-28T04:15:41.481Z,230.63
2019-04-28T04:16:41.403Z,236.25
2019-04-28T04:17:41.544Z,264.38
2019-04-28T04:18:41.469Z,264.38
2019-04-28T04:19:41.502Z,247.50
2019-04-28T04:20:41.536Z,253.13
2019-04-28T04:21:41.574Z,241.88
2019-04-28T04:22:41.608Z,236.25
2019-04-28T04:23:41.637Z,241.88
2019-04-28T04:24:41.672Z,264.38
2019-04-28T04:25:42.008Z,298.13
2019-04-28T04:26:41.737Z,315.00
2019-04-28T04:27:41.774Z,270.00
2019-04-28T04:28:42.048Z,286.88
2019-04-28T04:29:43.657Z,315.00
2019-04-28T04:30:41.876Z,303.75
2019-04-28T04:31:41.921Z,292.50
2019-04-28T04:32:41.943Z,320.63
2019-04-28T04:33:41.979Z,320.63
2019-04-28T04:34:42.012Z,382.50
2019-04-28T04:35:43.710Z,455.63
2019-04-28T04:36:42.092Z,534.38
2019-04-28T04:37:42.115Z,495.00
2019-04-28T04:38:45.809Z,399.38
2019-04-28T04:39:42.183Z,421.88
2019-04-28T04:40:42.225Z,410.63
2019-04-28T04:41:43.796Z,337.50
2019-04-28T04:42:42.290Z,315.00
2019-04-28T04:43:42.323Z,337.50
2019-04-28T04:44:42.360Z,331.88
2019-04-28T04:45:42.395Z,354.38
2019-04-28T04:46:42.434Z,405.00
2019-04-28T04:47:42.465Z,517.50
2019-04-28T04:48:42.499Z,573.75
2019-04-28T04:49:42.538Z,624.38
2019-04-28T04:50:42.568Z,641.25
2019-04-28T04:51:43.909Z,573.75
2019-04-28T04:52:42.645Z,461.25
2019-04-28T04:53:42.677Z,478.13
2019-04-28T04:54:42.724Z,579.38
2019-04-28T04:55:42.756Z,658.13
2019-04-28T04:56:42.785Z,691.88
2019-04-28T04:57:42.820Z,703.13
2019-04-28T04:58:42.856Z,720.00
2019-04-28T04:59:42.894Z,725.63
2019-04-28T05:00:43.379Z,731.25
2019-04-28T05:01:42.975Z,736.88
2019-04-28T05:02:51.278Z,736.88
2019-04-28T05:03:43.040Z,742.50
2019-04-28T05:04:43.077Z,753.75
2019-04-28T05:05:43.122Z,753.75
2019-04-28T05:06:43.152Z,748.13
2019-04-28T05:07:43.190Z,765.00
2019-04-28T05:08:43.231Z,765.00
2019-04-28T05:09:43.267Z,736.88
2019-04-28T05:10:43.305Z,725.63
2019-04-28T05:11:43.342Z,748.13
2019-04-28T05:12:43.381Z,742.50
2019-04-28T05:13:43.422Z,753.75
2019-04-28T05:14:43.459Z,770.63
2019-04-28T05:15:43.495Z,776.25
2019-04-28T05:16:43.533Z,793.13
2019-04-28T05:17:43.578Z,815.63
2019-04-28T05:18:43.613Z,815.63
2019-04-28T05:19:43.652Z,810.00
2019-04-28T05:20:43.692Z,815.63
2019-04-28T05:21:43.734Z,821.25
2019-04-28T05:22:43.770Z,832.50
2019-04-28T05:23:43.809Z,843.75
2019-04-28T05:24:46.165Z,860.63
2019-04-28T05:25:43.888Z,855.00
2019-04-28T05:26:47.876Z,860.63
2019-04-28T05:27:43.986Z,883.13
2019-04-28T05:28:50.569Z,866.25
2019-04-28T05:29:44.049Z,894.38
2019-04-28T05:30:44.087Z,928.13
2019-04-28T05:31:44.129Z,900.00
2019-04-28T05:32:49.510Z,888.75
2019-04-28T05:33:44.205Z,905.63
2019-04-28T05:34:46.713Z,911.25
2019-04-28T05:35:44.284Z,911.25
2019-04-28T05:36:44.805Z,928.13
2019-04-28T05:37:44.368Z,916.88
2019-04-28T05:38:44.404Z,939.38
2019-04-28T05:39:44.444Z,950.63
2019-04-28T05:40:44.484Z,967.50
2019-04-28T05:41:44.525Z,978.75
2019-04-28T05:42:44.568Z,990.00
2019-04-28T05:43:44.606Z,984.38
2019-04-28T05:44:44.648Z,1012.50
2019-04-28T05:45:44.698Z,1018.13
2019-04-28T05:46:44.733Z,1012.50
2019-04-28T05:47:44.772Z,1029.38
2019-04-28T05:48:44.811Z,1051.88
2019-04-28T05:49:44.857Z,1046.25
2019-04-28T05:50:44.890Z,1057.50
2019-04-28T05:51:44.934Z,1063.13
2019-04-28T05:52:44.973Z,1035.00
2019-04-28T05:53:45.015Z,1040.63
2019-04-28T05:54:45.055Z,1080.00
2019-04-28T05:55:45.097Z,1113.75
2019-04-28T05:56:45.140Z,1102.50
2019-04-28T05:57:45.183Z,1091.25
2019-04-28T05:58:45.232Z,1096.88
2019-04-28T05:59:45.266Z,1057.50
2019-04-28T06:00:45.309Z,1080.00
2019-04-28T06:01:45.352Z,1096.88
2019-04-28T06:02:55.535Z,1108.13
2019-04-28T06:03:45.428Z,1119.38
2019-04-28T06:04:45.468Z,1130.63
2019-04-28T06:05:45.515Z,1153.13
2019-04-28T06:06:45.553Z,1141.88
2019-04-28T06:07:45.597Z,1141.88
2019-04-28T06:08:45.637Z,1136.25
2019-04-28T06:09:45.680Z,1125.00
2019-04-28T06:10:45.721Z,1153.13
2019-04-28T06:11:45.762Z,1192.50
2019-04-28T06:12:45.805Z,1198.13
2019-04-28T06:13:45.847Z,1153.13
2019-04-28T06:14:45.890Z,1164.38
2019-04-28T06:15:45.931Z,1186.88
2019-04-28T06:16:45.974Z,1192.50
2019-04-28T06:17:46.017Z,1181.25
2019-04-28T06:18:46.057Z,1248.75
2019-04-28T06:19:46.101Z,1276.88
2019-04-28T06:20:46.144Z,1215.00
2019-04-28T06:21:46.184Z,1220.63
2019-04-28T06:22:46.227Z,1254.38
2019-04-28T06:23:46.271Z,1237.50
2019-04-28T06:24:46.318Z,1215.00
2019-04-28T06:25:46.355Z,1254.38
2019-04-28T06:26:46.400Z,1260.00
2019-04-28T06:27:46.442Z,1260.00
2019-04-28T06:28:46.483Z,1299.38
2019-04-28T06:29:46.526Z,1271.25
2019-04-28T06:30:46.569Z,1265.63
2019-04-28T06:31:46.609Z,1293.75
2019-04-28T06:32:46.661Z,1321.88
2019-04-28T06:33:46.703Z,1350.00
2019-04-28T06:34:46.738Z,1378.13
2019-04-28T06:35:46.784Z,1361.25
2019-04-28T06:36:46.826Z,1338.75
2019-04-28T06:37:46.869Z,1361.25
2019-04-28T06:38:46.910Z,1333.13
2019-04-28T06:39:47.388Z,1299.38
2019-04-28T06:40:46.996Z,1350.00
2019-04-28T06:41:47.042Z,1406.25
2019-04-28T06:42:47.085Z,1406.25
2019-04-28T06:43:47.125Z,1350.00
2019-04-28T06:44:47.169Z,1248.75
2019-04-28T06:45:47.213Z,1220.63
2019-04-28T06:46:47.257Z,1198.13
2019-04-28T06:47:47.299Z,1220.63
2019-04-28T06:48:47.344Z,1175.63
2019-04-28T06:49:47.450Z,1282.50
2019-04-28T06:50:47.427Z,1203.75
2019-04-28T06:51:47.474Z,1226.25
2019-04-28T06:52:47.515Z,1085.63
2019-04-28T06:53:47.558Z,1141.88
2019-04-28T06:54:47.606Z,1125.00
2019-04-28T06:55:47.646Z,900.00
2019-04-28T06:56:47.687Z,990.00
2019-04-28T06:57:47.734Z,1029.38
2019-04-28T06:58:58.433Z,883.13
2019-04-28T06:59:47.818Z,900.00
2019-04-28T07:00:47.856Z,933.75
2019-04-28T07:01:47.900Z,883.13
2019-04-28T07:02:47.940Z,815.63
2019-04-28T07:03:47.983Z,810.00
2019-04-28T07:04:48.026Z,838.13
2019-04-28T07:05:48.066Z,894.38
2019-04-28T07:06:48.111Z,916.88
2019-04-28T07:07:48.150Z,961.88
2019-04-28T07:08:48.195Z,961.88
2019-04-28T07:09:48.234Z,1141.88
2019-04-28T07:10:48.272Z,1203.75
2019-04-28T07:11:48.315Z,1350.00
2019-04-28T07:12:48.355Z,956.25
2019-04-28T07:13:48.396Z,1321.88
2019-04-28T07:14:48.437Z,939.38
2019-04-28T07:15:48.481Z,1080.00
2019-04-28T07:16:48.518Z,1456.88
2019-04-28T07:17:48.561Z,1282.50
2019-04-28T07:18:48.601Z,1659.38
2019-04-28T07:19:48.641Z,1395.00
2019-04-28T07:20:48.683Z,1170.00
2019-04-28T07:21:48.726Z,1181.25
2019-04-28T07:22:48.765Z,1237.50
2019-04-28T07:23:48.806Z,1181.25
2019-04-28T07:24:48.852Z,1091.25
2019-04-28T07:25:48.891Z,1108.13
2019-04-28T07:26:48.931Z,1316.25
2019-04-28T07:27:48.971Z,1496.25
2019-04-28T07:28:49.018Z,1687.50
2019-04-28T07:29:49.056Z,1546.88
2019-04-28T07:30:49.097Z,1580.63
2019-04-28T07:31:49.138Z,1839.38
2019-04-28T07:32:49.188Z,1710.00
2019-04-28T07:33:49.225Z,1648.13
2019-04-28T07:34:49.266Z,1490.63
2019-04-28T07:35:49.309Z,1468.13
2019-04-28T07:36:49.352Z,1552.50
2019-04-28T07:37:49.398Z,1468.13
2019-04-28T07:38:49.438Z,1507.50
2019-04-28T07:39:49.478Z,1704.38
2019-04-28T07:40:49.522Z,1749.38
2019-04-28T07:41:49.565Z,1794.38
2019-04-28T07:42:49.609Z,1760.63
2019-04-28T07:43:49.654Z,1710.00
2019-04-28T07:44:49.696Z,1749.38
2019-04-28T07:45:49.739Z,1715.63
2019-04-28T07:46:49.783Z,1704.38
2019-04-28T07:47:49.830Z,1777.50
2019-04-28T07:48:52.296Z,1805.63
2019-04-28T07:49:49.919Z,1985.63
2019-04-28T07:50:49.964Z,2070.00
2019-04-28T07:51:50.010Z,1771.88
2019-04-28T07:52:50.049Z,1732.50
2019-04-28T07:53:50.095Z,1788.75
2019-04-28T07:54:50.173Z,1839.38
2019-04-28T07:55:50.214Z,1839.38
2019-04-28T07:56:50.227Z,1878.75
2019-04-28T07:57:50.272Z,1749.38
2019-04-28T07:58:50.317Z,1625.63
2019-04-28T07:59:50.367Z,1845.00
2019-04-28T08:00:50.405Z,1929.38
2019-04-28T08:01:50.451Z,1828.13
2019-04-28T08:02:50.509Z,1710.00
2019-04-28T08:03:50.540Z,1783.13
2019-04-28T08:04:50.587Z,1951.88
2019-04-28T08:05:50.632Z,1991.25
2019-04-28T08:06:50.674Z,1991.25
2019-04-28T08:07:50.722Z,2002.50
2019-04-28T08:08:50.781Z,2075.63
2019-04-28T08:09:50.821Z,2025.00
2019-04-28T08:10:50.878Z,2025.00
2019-04-28T08:11:50.917Z,2126.25
2019-04-28T08:12:50.972Z,2075.63
2019-04-28T08:13:51.019Z,2120.63
2019-04-28T08:14:51.050Z,2109.38
2019-04-28T08:15:51.093Z,2070.00
2019-04-28T08:16:51.164Z,2137.50
2019-04-28T08:17:51.185Z,1996.88
2019-04-28T08:18:51.257Z,1974.38
2019-04-28T08:19:51.303Z,2047.50
2019-04-28T08:20:51.330Z,2210.63
2019-04-28T08:21:51.377Z,2160.00
2019-04-28T08:22:51.431Z,2053.13
2019-04-28T08:23:51.472Z,2182.50
2019-04-28T08:24:51.522Z,2221.88
2019-04-28T08:25:51.548Z,2137.50
2019-04-28T08:26:51.619Z,2244.38
2019-04-28T08:27:51.672Z,2199.38
2019-04-28T08:28:51.711Z,2070.00
2019-04-28T08:29:58.339Z,2025.00
2019-04-28T08:30:51.801Z,1980.00
2019-04-28T08:31:51.831Z,1890.00
2019-04-28T08:32:51.894Z,1912.50
2019-04-28T08:34:01.747Z,1951.88
2019-04-28T08:34:51.971Z,1878.75
2019-04-28T08:35:52.011Z,1839.38
2019-04-28T08:36:52.074Z,1811.25
2019-04-28T08:37:52.125Z,1828.13
2019-04-28T08:38:52.176Z,1867.50
2019-04-28T08:39:52.214Z,1895.63
2019-04-28T08:40:52.260Z,1940.63
2019-04-28T08:41:52.314Z,1906.88
2019-04-28T08:42:52.343Z,1873.13
2019-04-28T08:43:52.411Z,1856.25
2019-04-28T08:44:52.435Z,1884.38
2019-04-28T08:45:52.494Z,1845.00
2019-04-28T08:46:52.544Z,1946.25
2019-04-28T08:47:52.593Z,2025.00
2019-04-28T08:48:52.640Z,1923.75
2019-04-28T08:49:52.678Z,1839.38
2019-04-28T08:50:52.736Z,1726.88
2019-04-28T08:51:52.789Z,2199.38
2019-04-28T08:52:52.834Z,2441.25
2019-04-28T08:53:52.881Z,1738.13
2019-04-28T08:54:52.915Z,1350.00
2019-04-28T08:55:52.970Z,1552.50
2019-04-28T08:56:53.023Z,1833.75
2019-04-28T08:57:53.070Z,1912.50
2019-04-28T08:58:53.095Z,1710.00
2019-04-28T08:59:53.150Z,1681.88
2019-04-28T09:00:53.208Z,1861.88
2019-04-28T09:01:53.246Z,1507.50
2019-04-28T09:02:53.286Z,1265.63
2019-04-28T09:03:53.333Z,1175.63
2019-04-28T09:04:53.377Z,1091.25
2019-04-28T09:05:53.425Z,1046.25
2019-04-28T09:06:53.475Z,1063.13
2019-04-28T09:07:53.527Z,1091.25
2019-04-28T09:08:53.580Z,1091.25
2019-04-28T09:09:53.610Z,1125.00
2019-04-28T09:10:53.652Z,1125.00
2019-04-28T09:11:53.721Z,1080.00
2019-04-28T09:12:53.737Z,1170.00
2019-04-28T09:13:53.815Z,1248.75
2019-04-28T09:14:53.853Z,1215.00
2019-04-28T09:15:53.886Z,1321.88
2019-04-28T09:16:53.924Z,1395.00
2019-04-28T09:17:53.986Z,1456.88
2019-04-28T09:18:54.019Z,1518.75
2019-04-28T09:19:54.086Z,1473.75
2019-04-28T09:20:54.111Z,1462.50
2019-04-28T09:21:54.188Z,1473.75
2019-04-28T09:22:54.412Z,1473.75
2019-04-28T09:23:54.268Z,1530.00
2019-04-28T09:24:54.317Z,1434.38
2019-04-28T09:25:54.362Z,1479.38
2019-04-28T09:26:54.392Z,1546.88
2019-04-28T09:27:54.465Z,1546.88
2019-04-28T09:28:54.511Z,1552.50
2019-04-28T09:29:54.556Z,1456.88
2019-04-28T09:30:54.646Z,1428.75
2019-04-28T09:31:54.650Z,1462.50
2019-04-28T09:32:54.674Z,1423.13
2019-04-28T09:33:54.748Z,1293.75
2019-04-28T09:34:54.792Z,1254.38
2019-04-28T09:35:54.830Z,1271.25
2019-04-28T09:36:54.871Z,1181.25
2019-04-28T09:37:54.929Z,1141.88
2019-04-28T09:38:54.970Z,1198.13
2019-04-28T09:39:55.034Z,1248.75
2019-04-28T09:40:55.087Z,1209.38
2019-04-28T09:41:55.130Z,1243.13
2019-04-28T09:42:55.161Z,1237.50
2019-04-28T09:43:55.196Z,1203.75
2019-04-28T09:44:55.244Z,1226.25
2019-04-28T09:45:55.311Z,1254.38
2019-04-28T09:46:55.337Z,1170.00
2019-04-28T09:47:55.386Z,1158.75
2019-04-28T09:48:55.434Z,1136.25
2019-04-28T09:49:55.493Z,1186.88
2019-04-28T09:50:55.528Z,1181.25
2019-04-28T09:51:55.577Z,1125.00
2019-04-28T09:52:55.658Z,1215.00
2019-04-28T09:53:55.671Z,1141.88
2019-04-28T09:54:55.727Z,1035.00
2019-04-28T09:55:55.765Z,1085.63
2019-04-28T09:56:57.118Z,1085.63
2019-04-28T09:57:55.899Z,1085.63
2019-04-28T09:58:55.912Z,1080.00
2019-04-28T09:59:55.956Z,1040.63
2019-04-28T10:00:56.005Z,1023.75
2019-04-28T10:01:56.052Z,1091.25
2019-04-28T10:02:56.108Z,1175.63
2019-04-28T10:03:56.155Z,1153.13
2019-04-28T10:04:56.195Z,1074.38
2019-04-28T10:05:56.243Z,1085.63
2019-04-28T10:06:56.289Z,1119.38
2019-04-28T10:07:56.338Z,1102.50
2019-04-28T10:08:56.385Z,1080.00
2019-04-28T10:09:56.437Z,1102.50
2019-04-28T10:10:56.486Z,1170.00
2019-04-28T10:11:56.533Z,1186.88
2019-04-28T10:12:56.577Z,1220.63
2019-04-28T10:13:57.064Z,1147.50
2019-04-28T10:14:56.740Z,1175.63
2019-04-28T10:15:56.722Z,1243.13
2019-04-28T10:16:56.772Z,1192.50
2019-04-28T10:17:56.821Z,1231.88
2019-04-28T10:18:56.865Z,1265.63
2019-04-28T10:19:56.914Z,1192.50
2019-04-28T10:20:56.962Z,1158.75
2019-04-28T10:21:57.013Z,1226.25
2019-04-28T10:22:57.058Z,1282.50
2019-04-28T10:23:57.105Z,1333.13
2019-04-28T10:24:57.152Z,1293.75
2019-04-28T10:25:57.206Z,1260.00
2019-04-28T10:26:57.250Z,1299.38
2019-04-28T10:27:57.301Z,1423.13
2019-04-28T10:28:57.347Z,1321.88
2019-04-28T10:29:57.395Z,1321.88
2019-04-28T10:30:57.445Z,1417.50
2019-04-28T10:31:57.492Z,1479.38
2019-04-28T10:32:57.539Z,1485.00
2019-04-28T10:33:57.588Z,1631.25
2019-04-28T10:34:57.639Z,1591.88
2019-04-28T10:35:57.684Z,1558.13
2019-04-28T10:36:57.732Z,1653.75
2019-04-28T10:37:57.780Z,1715.63
2019-04-28T10:38:57.834Z,1693.13
2019-04-28T10:39:57.877Z,1811.25
2019-04-28T10:40:57.925Z,1828.13
2019-04-28T10:41:57.972Z,1783.13
2019-04-28T10:42:58.033Z,1794.38
2019-04-28T10:43:58.071Z,1755.00
2019-04-28T10:44:58.115Z,1788.75
2019-04-28T10:45:58.164Z,1861.88
2019-04-28T10:46:58.215Z,1828.13
2019-04-28T10:47:58.262Z,1861.88
2019-04-28T10:48:58.308Z,1867.50
2019-04-28T10:49:58.358Z,1811.25
2019-04-28T10:51:01.138Z,1794.38
2019-04-28T10:51:59.506Z,1788.75
2019-04-28T10:52:58.700Z,1884.38
2019-04-28T10:53:58.551Z,2008.13
2019-04-28T10:54:58.594Z,1985.63
2019-04-28T10:55:58.661Z,1968.75
2019-04-28T10:56:58.694Z,1940.63
2019-04-28T10:57:58.737Z,1940.63
2019-04-28T10:58:58.788Z,1974.38
2019-04-28T10:59:58.833Z,1985.63
2019-04-28T11:00:58.883Z,1963.13
2019-04-28T11:01:58.932Z,1918.13
2019-04-28T11:02:58.975Z,1946.25
2019-04-28T11:03:59.081Z,1963.13
2019-04-28T11:05:08.085Z,1991.25
2019-04-28T11:05:59.123Z,2081.25
2019-04-28T11:06:59.168Z,1974.38
2019-04-28T11:07:59.215Z,1929.38
2019-04-28T11:08:59.265Z,1974.38
2019-04-28T11:09:59.311Z,1985.63
2019-04-28T11:10:59.359Z,1963.13
2019-04-28T11:11:59.434Z,2053.13
2019-04-28T11:12:59.459Z,2030.63
2019-04-28T11:13:59.506Z,2008.13
2019-04-28T11:14:59.551Z,2036.25
2019-04-28T11:16:00.295Z,1963.13
2019-04-28T11:16:59.646Z,1873.13
2019-04-28T11:17:59.694Z,1839.38
2019-04-28T11:18:59.741Z,1845.00
2019-04-28T11:19:59.791Z,1890.00
2019-04-28T11:20:59.840Z,1929.38
2019-04-28T11:21:59.886Z,1929.38
2019-04-28T11:22:59.935Z,1845.00
2019-04-28T11:23:59.983Z,1811.25
2019-04-28T11:25:00.032Z,1828.13
2019-04-28T11:26:00.079Z,1800.00
2019-04-28T11:27:00.134Z,1811.25
2019-04-28T11:28:00.176Z,1766.25
2019-04-28T11:29:00.226Z,1811.25
2019-04-28T11:30:00.274Z,1856.25
2019-04-28T11:31:00.320Z,1906.88
2019-04-28T11:32:00.368Z,1884.38
2019-04-28T11:33:00.421Z,1861.88
2019-04-28T11:34:00.465Z,1946.25
2019-04-28T11:35:00.513Z,1890.00
2019-04-28T11:36:00.562Z,1811.25
2019-04-28T11:37:00.611Z,1890.00
2019-04-28T11:38:00.662Z,1901.25
2019-04-28T11:39:00.707Z,1912.50
2019-04-28T11:40:00.753Z,1856.25
2019-04-28T11:41:00.808Z,1884.38
2019-04-28T11:42:00.850Z,1867.50
2019-04-28T11:43:00.899Z,1884.38
2019-04-28T11:44:00.947Z,1861.88
2019-04-28T11:45:00.998Z,1935.00
2019-04-28T11:46:01.045Z,1963.13
2019-04-28T11:47:01.091Z,1974.38
2019-04-28T11:48:01.140Z,2008.13
2019-04-28T11:49:01.189Z,2008.13
2019-04-28T11:50:01.249Z,1828.13
2019-04-28T11:51:01.292Z,1715.63
2019-04-28T11:52:01.338Z,1895.63
2019-04-28T11:53:01.386Z,1980.00
2019-04-28T11:54:01.430Z,1968.75
2019-04-28T11:55:01.477Z,1929.38
2019-04-28T11:56:01.529Z,1816.88
2019-04-28T11:57:01.580Z,1698.75
2019-04-28T11:58:01.625Z,1530.00
2019-04-28T11:59:01.671Z,1411.88
2019-04-28T12:00:01.723Z,1395.00
2019-04-28T12:01:01.768Z,1473.75
2019-04-28T12:02:01.819Z,1445.63
2019-04-28T12:03:01.866Z,1400.63
2019-04-28T12:04:01.915Z,1305.00
2019-04-28T12:05:01.967Z,1243.13
2019-04-28T12:06:02.010Z,1276.88
2019-04-28T12:07:02.065Z,1321.88
2019-04-28T12:08:02.118Z,1366.88
2019-04-28T12:09:02.217Z,1428.75
2019-04-28T12:10:06.417Z,1473.75
2019-04-28T12:11:02.252Z,1496.25
2019-04-28T12:12:02.301Z,1378.13
2019-04-28T12:13:02.349Z,1400.63
2019-04-28T12:14:02.422Z,1591.88
2019-04-28T12:15:02.442Z,1434.38
2019-04-28T12:16:02.492Z,1237.50
2019-04-28T12:17:02.543Z,1350.00
2019-04-28T12:18:02.592Z,1462.50
2019-04-28T12:19:02.639Z,1411.88
2019-04-28T12:20:02.684Z,1372.50
2019-04-28T12:21:02.733Z,1400.63
2019-04-28T12:22:02.781Z,1406.25
2019-04-28T12:23:02.827Z,1372.50
2019-04-28T12:24:02.878Z,1355.63
2019-04-28T12:25:02.928Z,1327.50
2019-04-28T12:26:02.973Z,1310.63
2019-04-28T12:27:03.036Z,1350.00
2019-04-28T12:28:03.069Z,1395.00
2019-04-28T12:29:03.116Z,1383.75